Terminal Aerodrome Forecast
Issued by NWS

Home | Current Version | Previous Version | Text Only | Print | Product List | Glossary On
Versions: 1 2 3 4 5 6 7 8 9 10 11 12 13 14 15 16 17 18 19 20 21 22 23 24
678
FTUS46 KMTR 241343 AAA
TAFSFO
TAF AMD
KSFO 241343Z 2414/2518 26012KT P6SM OVC011
     FM241700 26009KT P6SM SCT020 SCT050
     FM242100 27015KT P6SM SCT025 SCT060
     FM250400 27012KT P6SM BKN020
     FM250600 27009KT P6SM OVC015
     FM251200 25007KT P6SM OVC012
     FM251700 27011KT P6SM SCT020 SCT040=

USA.gov is the U.S. government's official web portal to all federal, state and local government web resources and services.